メインページ
METAR-TAF:

METAR-TAF

空港 :

Edmonton/Villeneuve Airport

Villeneuve, アルバータ州, カナダ

緯度: 53-40-06N, 経度: 113-51-08W, 海抜: 688m

現時点の気象観測

当レポートは35分前の09:00(UTC)に作成
北/北西の風 3kt、西からの間で変化する
気温 -1°C
湿度 86%
気圧 1016 hPa
視程: 14.5km
高度19000ftの千切れ雲あり

METAR: CZVL 140900Z AUTO 33003KT 280V010 9SM BKN190 M01/M03 A3001 RMK SLP189

時間: 02:35 (09:35 UTC)

予報

当レポートは3時間57分前の05:38(UTC)に作成
予報は14日の 06時(UTC)から 14日の 18時(UTC)まで有効
変向風 3kt
視程: 10km
高度6000ftの雲は散在している
高度20000ftの千切れ雲あり
確率 30%
14日の 11時(UTC)から 14日の 14時(UTC)まで
視程: 0.8km
着氷性の霧
14日の 1400時(UTC)から
変向風 3kt
視程: 3.2km
高度400ftの曇り
確率 30%
14日の 14時(UTC)から 14日の 17時(UTC)まで
視程: 0.8km
高度200ftの
着氷性の霧

TAF: CZVL 140538Z 1406/1418 VRB03KT P6SM SCT060 BKN200 PROB30 1411/1414 1/2SM FZFG FM141400 VRB03KT 2SM BR OVC004 PROB30 1414/1417 1/2SM FZFG VV002 RMK FCST BASED ON AUTO OBS. NXT FCST BY 141200Z

4,000以上の空港の気象観測と天気予報(METAR報とTAF報)

利用可能な観測所は地図上に黄色い丸と赤い丸で示す。

丸の上にカーソルを重ねると観測所名を参照できる。

次にクリックすると気象観測と天気予報を参照できる。

マップの切り替え:黒色「×」印の緑ボタンをクリックして拡大、「-」印の緑ボタンをクリックして縮小、緑色の三角印をクリックして隣りの地図に切り替え


METAR-TAF: